createdAt,value
2022-10-06T00:02:13.733Z,13.24
2022-10-06T00:04:40.095Z,13.34
2022-10-06T00:07:06.476Z,13.30
2022-10-06T00:09:32.907Z,13.32
2022-10-06T00:12:00.002Z,13.27
2022-10-06T00:14:27.259Z,13.32
2022-10-06T00:16:53.745Z,13.20
2022-10-06T00:19:20.090Z,13.26
2022-10-06T00:21:46.462Z,13.22
2022-10-06T00:24:12.814Z,13.12
2022-10-06T00:26:39.145Z,13.11
2022-10-06T00:29:05.472Z,13.03
2022-10-06T00:31:31.871Z,12.81
2022-10-06T00:33:58.206Z,12.72
2022-10-06T00:36:24.565Z,12.41
2022-10-06T00:38:51.017Z,12.41
2022-10-06T00:41:18.026Z,12.26
2022-10-06T00:43:59.061Z,12.16
2022-10-06T00:46:37.963Z,12.08
2022-10-06T00:49:32.686Z,12.04
2022-10-06T00:52:04.308Z,12.14
2022-10-06T00:54:32.689Z,12.10
2022-10-06T00:56:59.450Z,12.13
2022-10-06T00:59:25.893Z,12.03
2022-10-06T01:02:08.953Z,12.07
2022-10-06T01:04:38.061Z,12.15
2022-10-06T01:07:04.873Z,12.25
2022-10-06T01:09:31.587Z,12.34
2022-10-06T01:12:01.389Z,12.48
2022-10-06T01:14:28.429Z,12.57
2022-10-06T01:17:02.654Z,12.69
2022-10-06T01:19:47.470Z,12.63
2022-10-06T01:22:16.611Z,12.81
2022-10-06T01:24:46.654Z,12.93
2022-10-06T01:27:15.213Z,13.00
2022-10-06T01:29:41.721Z,12.95
2022-10-06T01:32:08.386Z,13.06
2022-10-06T01:34:34.938Z,13.16
2022-10-06T01:37:01.261Z,13.24
2022-10-06T01:39:27.590Z,13.30
2022-10-06T01:41:53.880Z,13.37
2022-10-06T01:44:20.372Z,13.38
2022-10-06T01:46:46.706Z,13.55
2022-10-06T01:49:13.035Z,13.56
2022-10-06T01:51:39.353Z,13.61
2022-10-06T01:54:05.699Z,13.70
2022-10-06T01:56:32.022Z,13.79
2022-10-06T01:58:58.366Z,13.90
2022-10-06T02:01:24.754Z,13.97
2022-10-06T02:03:51.075Z,13.98
2022-10-06T02:06:17.548Z,14.06
2022-10-06T02:08:43.933Z,14.26
2022-10-06T02:11:11.962Z,14.25
2022-10-06T02:13:39.057Z,14.31
2022-10-06T02:16:07.898Z,14.33
2022-10-06T02:18:35.522Z,14.38
2022-10-06T02:21:03.207Z,14.42
2022-10-06T02:23:30.050Z,14.46
2022-10-06T02:25:59.856Z,14.48
2022-10-06T02:28:26.914Z,14.56
2022-10-06T02:30:53.497Z,14.54
2022-10-06T02:33:19.873Z,14.51
2022-10-06T02:35:47.061Z,14.48
2022-10-06T02:38:13.393Z,14.57
2022-10-06T02:40:39.690Z,14.53
2022-10-06T02:43:06.020Z,14.64
2022-10-06T02:45:32.339Z,14.59
2022-10-06T02:47:58.662Z,14.47
2022-10-06T02:50:25.018Z,14.55
2022-10-06T02:52:51.353Z,14.54
2022-10-06T02:55:17.823Z,14.41
2022-10-06T02:57:44.244Z,14.54
2022-10-06T03:00:11.301Z,14.55
2022-10-06T03:02:37.693Z,14.49
2022-10-06T03:05:04.538Z,14.53
2022-10-06T03:07:30.855Z,14.61
2022-10-06T03:09:57.265Z,14.57
2022-10-06T03:12:23.899Z,14.48
2022-10-06T03:14:50.197Z,14.41
2022-10-06T03:17:16.552Z,14.31
2022-10-06T03:19:42.864Z,14.38
2022-10-06T03:22:10.459Z,14.36
2022-10-06T03:24:36.830Z,14.35
2022-10-06T03:27:04.188Z,14.26
2022-10-06T03:29:31.081Z,14.34
2022-10-06T03:31:58.413Z,14.36
2022-10-06T03:34:24.930Z,14.46
2022-10-06T03:36:51.577Z,14.41
2022-10-06T03:39:17.897Z,14.50
2022-10-06T03:41:47.284Z,14.43
2022-10-06T03:44:13.636Z,14.57
2022-10-06T03:46:40.063Z,14.55
2022-10-06T03:49:06.766Z,14.79
2022-10-06T03:51:38.830Z,14.77
2022-10-06T03:54:05.342Z,14.76
2022-10-06T03:56:36.991Z,14.79
2022-10-06T03:59:14.061Z,14.78
2022-10-06T04:01:45.605Z,14.86
2022-10-06T04:04:13.206Z,14.79
2022-10-06T04:06:42.498Z,14.82
2022-10-06T04:09:15.319Z,14.74
2022-10-06T04:11:43.883Z,14.64
2022-10-06T04:14:12.990Z,14.53
2022-10-06T04:16:41.962Z,14.57
2022-10-06T04:19:10.087Z,14.56
2022-10-06T04:21:38.107Z,14.48
2022-10-06T04:24:05.871Z,14.48
2022-10-06T04:26:36.239Z,14.33
2022-10-06T04:29:02.631Z,14.42
2022-10-06T04:31:32.790Z,14.29
2022-10-06T04:34:01.250Z,14.31
2022-10-06T04:36:29.894Z,14.26
2022-10-06T04:39:02.621Z,14.18
2022-10-06T04:41:34.820Z,14.10
2022-10-06T04:44:02.323Z,14.09
2022-10-06T04:46:42.645Z,13.94
2022-10-06T04:49:13.345Z,13.89
2022-10-06T04:51:44.376Z,13.93
2022-10-06T04:54:10.829Z,13.89
2022-10-06T04:56:37.178Z,13.93
2022-10-06T04:59:03.708Z,13.78
2022-10-06T05:01:32.285Z,13.90
2022-10-06T05:04:00.926Z,13.84
2022-10-06T05:06:33.143Z,13.75
2022-10-06T05:09:02.272Z,13.69
2022-10-06T05:11:29.467Z,13.58
2022-10-06T05:13:58.680Z,13.61
2022-10-06T05:16:28.077Z,13.48
2022-10-06T05:18:54.717Z,13.50
2022-10-06T05:21:25.831Z,13.46
2022-10-06T05:23:52.820Z,13.52
2022-10-06T05:26:22.624Z,13.37
2022-10-06T05:28:49.187Z,13.36
2022-10-06T05:31:21.289Z,13.48
2022-10-06T05:33:48.026Z,13.47
2022-10-06T05:36:18.834Z,13.45
2022-10-06T05:38:45.788Z,13.46
2022-10-06T05:41:26.481Z,13.58
2022-10-06T05:43:53.284Z,13.62
2022-10-06T05:46:23.721Z,13.59
2022-10-06T05:48:56.659Z,13.68
2022-10-06T05:51:30.992Z,13.82
2022-10-06T05:53:58.867Z,13.65
2022-10-06T05:56:27.700Z,13.62
2022-10-06T05:58:55.469Z,13.64
2022-10-06T06:01:27.785Z,13.81
2022-10-06T06:04:00.168Z,13.74
2022-10-06T06:06:35.606Z,13.74
2022-10-06T06:09:06.804Z,13.65
2022-10-06T06:11:34.943Z,13.70
2022-10-06T06:14:04.081Z,13.58
2022-10-06T06:16:31.172Z,13.51
2022-10-06T06:18:58.096Z,13.59
2022-10-06T06:21:25.982Z,13.40
2022-10-06T06:23:52.832Z,13.36
2022-10-06T06:26:23.488Z,13.32
2022-10-06T06:28:54.362Z,13.32
2022-10-06T06:31:23.808Z,13.30
2022-10-06T06:33:58.192Z,13.26
2022-10-06T06:36:30.132Z,13.37
2022-10-06T06:38:58.078Z,13.30
2022-10-06T06:41:33.245Z,13.22
2022-10-06T06:44:00.223Z,13.31
2022-10-06T06:46:31.895Z,12.94
2022-10-06T06:49:04.422Z,13.01
2022-10-06T06:51:33.169Z,13.12
2022-10-06T06:54:02.198Z,13.37
2022-10-06T06:56:29.718Z,13.26
2022-10-06T06:58:56.021Z,13.31
2022-10-06T07:01:23.082Z,13.27
2022-10-06T07:03:59.122Z,13.29
2022-10-06T07:06:28.735Z,13.29
2022-10-06T07:08:57.083Z,13.25
2022-10-06T07:11:24.629Z,13.22
2022-10-06T07:13:57.674Z,13.24
2022-10-06T07:16:43.850Z,13.34
2022-10-06T07:19:30.617Z,13.45
2022-10-06T07:22:18.839Z,13.49
2022-10-06T07:25:04.756Z,13.36
2022-10-06T07:27:34.226Z,13.45
2022-10-06T07:30:00.566Z,13.56
2022-10-06T07:32:30.806Z,13.56
2022-10-06T07:34:58.666Z,13.45
2022-10-06T07:37:25.718Z,13.44
2022-10-06T07:39:52.035Z,13.61
2022-10-06T07:42:18.701Z,13.63
2022-10-06T07:45:08.630Z,13.74
2022-10-06T07:47:38.293Z,13.89
2022-10-06T07:50:08.449Z,13.82
2022-10-06T07:52:39.026Z,13.66
2022-10-06T07:55:05.995Z,13.70
2022-10-06T07:57:35.213Z,13.86
2022-10-06T08:00:05.453Z,13.92
2022-10-06T08:02:35.469Z,13.86
2022-10-06T08:05:02.858Z,13.77
2022-10-06T08:07:29.200Z,13.79
2022-10-06T08:09:55.532Z,13.86
2022-10-06T08:12:34.315Z,13.83
2022-10-06T08:15:06.030Z,13.76
2022-10-06T08:17:35.329Z,13.89
2022-10-06T08:20:01.900Z,13.88
2022-10-06T08:22:29.994Z,13.92
2022-10-06T08:25:05.920Z,13.96
2022-10-06T08:27:34.742Z,14.01
2022-10-06T08:30:01.428Z,14.08
2022-10-06T08:32:27.858Z,13.92
2022-10-06T08:34:54.545Z,14.06
2022-10-06T08:37:23.654Z,14.08
2022-10-06T08:39:53.734Z,14.06
2022-10-06T08:42:42.512Z,14.11
2022-10-06T08:45:24.019Z,14.14
2022-10-06T08:47:53.695Z,14.02
2022-10-06T08:50:21.896Z,14.13
2022-10-06T08:52:56.942Z,14.03
2022-10-06T08:55:34.320Z,14.15
2022-10-06T08:58:30.189Z,14.08
2022-10-06T09:01:23.346Z,14.16
2022-10-06T09:03:52.493Z,14.11
2022-10-06T09:07:09.195Z,14.15
2022-10-06T09:09:56.988Z,14.26
2022-10-06T09:12:32.796Z,14.31
2022-10-06T09:15:14.730Z,14.39
2022-10-06T09:17:56.514Z,14.27
2022-10-06T09:20:42.489Z,14.35
2022-10-06T09:23:15.607Z,14.42
2022-10-06T09:25:42.038Z,14.40
2022-10-06T09:28:15.662Z,14.56
2022-10-06T09:30:43.243Z,14.55
2022-10-06T09:33:19.634Z,14.68
2022-10-06T09:36:09.133Z,14.67
2022-10-06T09:38:53.915Z,14.68
2022-10-06T09:41:24.749Z,14.69
2022-10-06T09:44:06.176Z,14.75
2022-10-06T09:46:35.005Z,14.76
2022-10-06T09:49:17.389Z,14.68
2022-10-06T09:52:16.073Z,14.75
2022-10-06T09:54:43.746Z,14.66
2022-10-06T09:57:28.107Z,14.75
2022-10-06T09:59:58.004Z,14.72
2022-10-06T10:02:39.491Z,14.66
2022-10-06T10:05:18.690Z,14.68
2022-10-06T10:07:48.032Z,14.64
2022-10-06T10:10:19.464Z,14.62
2022-10-06T10:12:53.762Z,14.78
2022-10-06T10:15:20.031Z,14.61
2022-10-06T10:17:52.738Z,14.75
2022-10-06T10:20:25.019Z,14.67
2022-10-06T10:22:52.969Z,14.68
2022-10-06T10:26:14.060Z,14.69
2022-10-06T10:28:51.980Z,14.59
2022-10-06T10:31:31.271Z,14.73
2022-10-06T10:34:24.033Z,14.79
2022-10-06T10:36:57.494Z,14.76
2022-10-06T10:39:38.616Z,14.67
2022-10-06T10:42:14.480Z,14.53
2022-10-06T10:44:53.503Z,14.46
2022-10-06T10:47:28.132Z,14.57
2022-10-06T10:50:08.699Z,14.57
2022-10-06T10:52:41.613Z,14.56
2022-10-06T10:55:39.561Z,14.47
2022-10-06T10:58:31.905Z,14.63
2022-10-06T11:01:07.868Z,14.80
2022-10-06T11:03:34.262Z,14.85
2022-10-06T11:06:06.778Z,14.99
2022-10-06T11:09:01.399Z,14.98
2022-10-06T11:11:37.789Z,14.79
2022-10-06T11:14:26.224Z,15.02
2022-10-06T11:16:58.316Z,15.00
2022-10-06T11:19:47.397Z,15.15
2022-10-06T11:22:41.671Z,15.15
2022-10-06T11:25:27.540Z,15.15
2022-10-06T11:28:05.415Z,15.14
2022-10-06T11:30:36.844Z,15.13
2022-10-06T11:33:40.891Z,15.09
2022-10-06T11:36:15.368Z,15.07
2022-10-06T11:38:47.434Z,15.07
2022-10-06T11:41:28.061Z,15.12
2022-10-06T11:44:12.856Z,15.00
2022-10-06T11:46:49.779Z,14.91
2022-10-06T11:49:28.485Z,15.08
2022-10-06T11:52:14.783Z,14.78
2022-10-06T11:54:50.003Z,14.95
2022-10-06T11:57:25.021Z,14.90
2022-10-06T12:00:17.307Z,15.00
2022-10-06T12:02:46.290Z,15.10
2022-10-06T12:05:55.395Z,15.14
2022-10-06T12:08:02.692Z,15.10
2022-10-06T12:10:28.963Z,15.04
2022-10-06T12:13:21.195Z,15.12
2022-10-06T12:19:21.796Z,15.05
2022-10-06T12:22:30.882Z,15.19
2022-10-06T12:25:06.768Z,15.14
2022-10-06T12:27:59.221Z,15.18
2022-10-06T12:31:02.361Z,15.27
2022-10-06T12:33:38.149Z,15.13
2022-10-06T12:36:15.221Z,15.22
2022-10-06T12:39:00.161Z,15.22
2022-10-06T12:41:58.851Z,15.22
2022-10-06T12:44:37.259Z,15.16
2022-10-06T12:47:32.543Z,15.16
2022-10-06T12:50:06.960Z,15.25
2022-10-06T12:52:46.220Z,15.26
2022-10-06T12:55:50.275Z,15.35
2022-10-06T12:58:28.933Z,15.32
2022-10-06T13:01:09.397Z,15.42
2022-10-06T13:03:37.287Z,15.61
2022-10-06T13:06:06.840Z,15.66
2022-10-06T13:08:38.060Z,15.57
2022-10-06T13:11:16.676Z,15.51
2022-10-06T13:13:58.561Z,15.62
2022-10-06T13:16:26.152Z,15.60
2022-10-06T13:18:59.078Z,15.57
2022-10-06T13:21:26.040Z,15.60
2022-10-06T13:23:52.687Z,15.61
2022-10-06T13:26:32.215Z,15.54
2022-10-06T13:28:59.994Z,15.56
2022-10-06T13:31:35.108Z,15.51
2022-10-06T13:34:09.772Z,15.41
2022-10-06T13:36:38.852Z,15.40
2022-10-06T13:39:06.793Z,15.33
2022-10-06T13:41:37.999Z,15.30
2022-10-06T13:44:14.175Z,15.37
2022-10-06T13:46:53.062Z,15.46
2022-10-06T13:49:25.994Z,15.37
2022-10-06T13:51:54.453Z,15.30
2022-10-06T13:54:29.649Z,15.31
2022-10-06T13:56:56.766Z,15.32
2022-10-06T13:59:28.605Z,15.33
2022-10-06T14:01:56.382Z,15.21
2022-10-06T14:04:23.178Z,15.27
2022-10-06T14:07:01.435Z,15.36
2022-10-06T14:09:31.598Z,15.26
2022-10-06T14:12:07.347Z,15.19
2022-10-06T14:14:33.889Z,15.21
2022-10-06T14:17:00.807Z,15.17
2022-10-06T14:19:34.929Z,15.17
2022-10-06T14:22:02.474Z,15.29
2022-10-06T14:24:30.032Z,15.17
2022-10-06T14:27:01.690Z,15.12
2022-10-06T14:29:28.149Z,15.09
2022-10-06T14:31:54.723Z,15.21
2022-10-06T14:34:22.372Z,15.16
2022-10-06T14:36:55.155Z,14.98
2022-10-06T14:39:21.991Z,15.13
2022-10-06T14:41:48.428Z,15.30
2022-10-06T14:44:15.927Z,15.27
2022-10-06T14:46:47.412Z,15.33
2022-10-06T14:49:14.359Z,15.39
2022-10-06T14:51:42.529Z,15.27
2022-10-06T14:54:11.443Z,15.35
2022-10-06T14:56:39.228Z,15.31
2022-10-06T14:59:08.130Z,15.31
2022-10-06T15:01:37.703Z,15.43
2022-10-06T15:04:15.300Z,15.39
2022-10-06T15:07:00.793Z,15.46
2022-10-06T15:09:30.582Z,15.39
2022-10-06T15:11:57.733Z,15.31
2022-10-06T15:14:24.153Z,15.27
2022-10-06T15:16:51.038Z,15.26
2022-10-06T15:19:17.656Z,15.20
2022-10-06T15:21:47.117Z,15.22
2022-10-06T15:24:16.066Z,15.16
2022-10-06T15:27:01.678Z,15.24
2022-10-06T15:29:28.541Z,15.13
2022-10-06T15:31:55.215Z,15.13
2022-10-06T15:34:41.357Z,15.02
2022-10-06T15:37:08.209Z,14.92
2022-10-06T15:39:36.799Z,14.97
2022-10-06T15:42:03.645Z,15.02
2022-10-06T15:44:36.164Z,14.91
2022-10-06T15:47:05.195Z,14.86
2022-10-06T15:49:32.869Z,14.80
2022-10-06T15:52:02.785Z,14.65
2022-10-06T15:54:33.669Z,14.64
2022-10-06T15:57:02.546Z,14.56
2022-10-06T15:59:32.412Z,14.58
2022-10-06T16:02:02.525Z,14.50
2022-10-06T16:04:48.201Z,14.58
2022-10-06T16:07:19.426Z,14.55
2022-10-06T16:09:48.515Z,14.42
2022-10-06T16:12:18.072Z,14.16
2022-10-06T16:14:44.604Z,13.93
2022-10-06T16:17:12.153Z,13.96
2022-10-06T16:19:40.241Z,13.98
2022-10-06T16:22:08.942Z,14.13
2022-10-06T16:24:35.276Z,14.17
2022-10-06T16:27:01.877Z,14.16
2022-10-06T16:29:30.285Z,14.15
2022-10-06T16:31:56.874Z,14.17
2022-10-06T16:34:23.389Z,14.16
2022-10-06T16:36:49.766Z,14.15
2022-10-06T16:39:19.242Z,14.08
2022-10-06T16:41:48.104Z,14.01
2022-10-06T16:44:14.655Z,13.98
2022-10-06T16:46:41.380Z,13.91
2022-10-06T16:49:08.598Z,13.83
2022-10-06T16:51:40.290Z,13.73
2022-10-06T16:54:14.288Z,13.71
2022-10-06T16:56:46.576Z,13.57
2022-10-06T16:59:45.779Z,13.61
2022-10-06T17:02:14.484Z,13.44
2022-10-06T17:04:40.905Z,13.40
2022-10-06T17:07:07.362Z,13.33
2022-10-06T17:09:33.903Z,13.27
2022-10-06T17:12:02.813Z,13.17
2022-10-06T17:14:31.669Z,13.09
2022-10-06T17:16:59.091Z,13.08
2022-10-06T17:19:28.436Z,12.93
2022-10-06T17:21:59.107Z,12.85
2022-10-06T17:24:28.006Z,12.80
2022-10-06T17:26:56.536Z,12.73
2022-10-06T17:29:23.550Z,12.68
2022-10-06T17:32:19.987Z,12.61
2022-10-06T17:34:46.413Z,12.52
2022-10-06T17:37:17.259Z,12.52
2022-10-06T17:39:47.027Z,12.47
2022-10-06T17:42:15.049Z,12.39
2022-10-06T17:44:41.443Z,12.29
2022-10-06T17:47:12.190Z,12.17
2022-10-06T17:49:38.545Z,12.16
2022-10-06T17:52:05.920Z,12.05
2022-10-06T17:54:32.504Z,12.06
2022-10-06T17:56:59.259Z,11.98
2022-10-06T17:59:31.831Z,11.85
2022-10-06T18:02:00.825Z,11.87
2022-10-06T18:04:28.337Z,11.83
2022-10-06T18:06:55.183Z,11.87
2022-10-06T18:09:22.550Z,11.69
2022-10-06T18:11:54.559Z,11.72
2022-10-06T18:14:22.734Z,11.79
2022-10-06T18:16:56.182Z,11.68
2022-10-06T18:19:26.363Z,11.66
2022-10-06T18:21:54.739Z,11.67
2022-10-06T18:24:23.852Z,11.65
2022-10-06T18:26:52.463Z,11.64
2022-10-06T18:29:21.967Z,11.55
2022-10-06T18:31:50.306Z,11.64
2022-10-06T18:37:04.430Z,11.69
2022-10-06T18:39:31.989Z,11.63
2022-10-06T18:42:02.371Z,11.62
2022-10-06T18:44:47.544Z,11.66
2022-10-06T18:47:32.156Z,11.63
2022-10-06T18:49:58.546Z,11.56
2022-10-06T18:52:24.875Z,11.53
2022-10-06T18:54:51.175Z,11.54
2022-10-06T18:57:17.617Z,11.49
2022-10-06T18:59:44.442Z,11.45
2022-10-06T19:02:11.322Z,11.42
2022-10-06T19:04:39.210Z,11.42
2022-10-06T19:07:05.632Z,11.39
2022-10-06T19:09:31.940Z,11.41
2022-10-06T19:11:58.811Z,11.36
2022-10-06T19:14:27.372Z,11.29
2022-10-06T19:17:06.553Z,11.28
2022-10-06T19:19:33.978Z,11.32
2022-10-06T19:22:02.613Z,11.23
2022-10-06T19:24:32.802Z,11.15
2022-10-06T19:26:59.721Z,11.15
2022-10-06T19:29:26.949Z,11.07
2022-10-06T19:31:56.704Z,11.09
2022-10-06T19:34:25.020Z,11.04
2022-10-06T19:36:55.073Z,11.06
2022-10-06T19:39:24.705Z,11.02
2022-10-06T19:42:10.333Z,11.01
2022-10-06T19:44:42.760Z,10.92
2022-10-06T19:47:14.548Z,10.98
2022-10-06T19:49:41.966Z,10.90
2022-10-06T19:52:09.957Z,10.78
2022-10-06T19:54:37.129Z,10.80
2022-10-06T19:57:05.600Z,10.56
2022-10-06T19:59:33.002Z,10.55
2022-10-06T20:01:59.350Z,10.65
2022-10-06T20:04:25.862Z,10.61
2022-10-06T20:06:52.558Z,10.46
2022-10-06T20:09:22.172Z,10.48
2022-10-06T20:11:50.272Z,10.49
2022-10-06T20:14:21.090Z,10.50
2022-10-06T20:16:50.811Z,10.60
2022-10-06T20:19:18.528Z,10.62
2022-10-06T20:21:45.400Z,10.70
2022-10-06T20:24:22.868Z,10.59
2022-10-06T20:26:50.918Z,10.57
2022-10-06T20:29:23.226Z,10.62
2022-10-06T20:31:52.301Z,10.53
2022-10-06T20:34:21.880Z,10.57
2022-10-06T20:36:53.119Z,10.61
2022-10-06T20:39:41.059Z,10.69
2022-10-06T20:42:12.242Z,10.70
2022-10-06T20:44:42.005Z,10.69
2022-10-06T20:47:08.912Z,10.71
2022-10-06T20:49:35.284Z,10.73
2022-10-06T20:52:02.719Z,10.74
2022-10-06T20:54:34.898Z,10.69
2022-10-06T20:57:03.932Z,10.71
2022-10-06T20:59:31.582Z,10.66
2022-10-06T21:02:00.078Z,10.66
2022-10-06T21:04:27.556Z,10.66
2022-10-06T21:06:53.994Z,10.63
2022-10-06T21:09:20.551Z,10.63
2022-10-06T21:11:47.695Z,10.60
2022-10-06T21:14:14.632Z,10.56
2022-10-06T21:16:45.394Z,10.53
2022-10-06T21:19:14.498Z,10.52
2022-10-06T21:21:42.297Z,10.46
2022-10-06T21:24:08.895Z,10.48
2022-10-06T21:26:35.781Z,10.40
2022-10-06T21:29:03.072Z,10.45
2022-10-06T21:31:29.592Z,10.40
2022-10-06T21:33:56.325Z,10.34
2022-10-06T21:36:25.475Z,10.33
2022-10-06T21:38:57.698Z,10.35
2022-10-06T21:41:30.434Z,10.16
2022-10-06T21:44:03.465Z,10.18
2022-10-06T21:46:35.542Z,10.16
2022-10-06T21:49:04.056Z,10.03
2022-10-06T21:51:31.760Z,10.07
2022-10-06T21:53:59.707Z,9.88
2022-10-06T21:56:27.900Z,9.74
2022-10-06T21:58:55.837Z,9.80
2022-10-06T22:01:25.212Z,9.91
2022-10-06T22:03:51.845Z,9.89
2022-10-06T22:06:19.751Z,9.82
2022-10-06T22:08:46.970Z,9.80
2022-10-06T22:11:18.233Z,9.80
2022-10-06T22:13:48.048Z,9.75
2022-10-06T22:16:18.910Z,9.74
2022-10-06T22:18:46.140Z,9.69
2022-10-06T22:21:13.892Z,9.65
2022-10-06T22:23:45.439Z,9.59
2022-10-06T22:26:13.506Z,9.61
2022-10-06T22:28:45.127Z,9.59
2022-10-06T22:31:12.059Z,9.53
2022-10-06T22:33:40.002Z,9.50
2022-10-06T22:36:07.387Z,9.54
2022-10-06T22:38:34.735Z,9.45
2022-10-06T22:41:02.680Z,9.43
2022-10-06T22:43:29.648Z,9.44
2022-10-06T22:45:57.541Z,9.29
2022-10-06T22:48:24.230Z,9.35
2022-10-06T22:50:51.030Z,9.40
2022-10-06T22:53:19.452Z,9.33
2022-10-06T22:55:46.552Z,9.33
2022-10-06T22:58:13.655Z,9.39
2022-10-06T23:00:40.770Z,9.43
2022-10-06T23:03:07.996Z,9.39
2022-10-06T23:05:35.303Z,9.37
2022-10-06T23:08:03.136Z,9.36
2022-10-06T23:10:30.463Z,9.36
2022-10-06T23:12:58.262Z,9.28
2022-10-06T23:15:25.664Z,9.29
2022-10-06T23:17:52.479Z,9.30
2022-10-06T23:20:19.770Z,9.27
2022-10-06T23:22:46.213Z,9.24
2022-10-06T23:25:12.836Z,9.29
2022-10-06T23:27:39.317Z,9.24
2022-10-06T23:30:06.676Z,9.24
2022-10-06T23:32:33.180Z,9.21
2022-10-06T23:34:59.529Z,9.19
2022-10-06T23:37:25.951Z,9.19
2022-10-06T23:39:52.691Z,9.18
2022-10-06T23:42:19.111Z,9.18
2022-10-06T23:44:45.512Z,9.15
2022-10-06T23:47:11.859Z,9.14
2022-10-06T23:49:38.212Z,9.14
2022-10-06T23:52:04.558Z,9.13
2022-10-06T23:54:30.939Z,9.11
2022-10-06T23:56:57.291Z,9.04
2022-10-06T23:59:23.736Z,8.98
